21kousinmaru — JD2168 — position and weather

sailwx.info

Track history (hours):
 
Tides and Currents Weather Stations Pressure Air Temp Water Temp Dewpoint Dewpoint Depression Visibility Wind Speed Wind Dir Waves Ship Positions

21kousinmaru

Last reported at 2016-Feb-08 03:33 UTC. Time now 2016-Feb-09 11:53 UTC.
Position N 35°17' E 139°44'.

Length 68 m; draft 4.5 m.

MMSI: 431501835.

Date/timePositionNaut miles runAvg speedWind from/ knotsBaromVisibWave heightAir tempDewpointWater temp
2016-Feb-08 03:33N 35°17' E 139°44'1110.6
2016-Feb-08 02:33N 35°27' E 139°48'1212.0
2016-Feb-08 01:33N 35°31' E 140°02'0 0.3
2016-Feb-08 00:33N 35°31' E 140°02'0 0.0
2016-Feb-07 23:33N 35°31' E 140°02'0 0.0
2016-Feb-07 22:33N 35°31' E 140°02'0 0.5
2016-Feb-07 21:33N 35°31' E 140°02'6 5.9
2016-Feb-07 20:33N 35°29' E 139°55'0 0.0
2016-Feb-07 19:33N 35°29' E 139°55'0 0.0
2016-Feb-07 18:33N 35°29' E 139°55'0 0.0
2016-Feb-07 17:33N 35°29' E 139°55'1111.1
2016-Feb-07 16:34N 35°22' E 139°45'1212.3
2016-Feb-07 15:33N 35°09' E 139°46'1312.8
2016-Feb-07 14:33N 34°56' E 139°44'1611.2
2016-Feb-07 13:09N 34°56' E 140°03'812.6
2016-Feb-07 12:33N 35°00' E 140°11'59 4.4
2016-Feb-06 23:11N 35°54' E 140°41'  
2016-Feb-03 23:31N 35°53' E 140°41'  
2016-Feb-01 09:27N 35°00' E 140°13'1411.8
2016-Feb-01 08:16N 34°53' E 139°58'1110.8
2016-Feb-01 07:14N 34°56' E 139°45'1212.9
2016-Feb-01 06:16N 35°09' E 139°46'912.6
2016-Feb-01 05:33N 35°18' E 139°44'5 4.7
2016-Feb-01 04:34N 35°21' E 139°41'3 2.5
2016-Feb-01 03:33N 35°23' E 139°40'2 1.6
2016-Feb-01 02:34N 35°25' E 139°39'0 0.0
2016-Feb-01 01:33N 35°25' E 139°39'0 0.0
2016-Feb-01 00:34N 35°25' E 139°39'0 0.0
2016-Jan-31 23:33N 35°25' E 139°39'2 2.0
2016-Jan-31 22:34N 35°23' E 139°40'0 0.5
2016-Jan-31 21:33N 35°23' E 139°40'0 0.0
2016-Jan-31 20:34N 35°23' E 139°40'0 0.0
2016-Jan-31 19:33N 35°23' E 139°40'0 0.0
2016-Jan-31 18:33N 35°23' E 139°40'0 0.0
2016-Jan-31 17:33N 35°23' E 139°40'0 0.0
2016-Jan-31 16:34N 35°23' E 139°40'0 0.0
2016-Jan-31 15:33N 35°23' E 139°40'0 0.0
2016-Jan-31 14:34N 35°23' E 139°40'0 0.0
2016-Jan-31 13:33N 35°23' E 139°40'0 0.0
2016-Jan-31 12:34N 35°23' E 139°40'0 0.0
2016-Jan-31 11:33N 35°23' E 139°40'3 3.0
2016-Jan-31 10:34N 35°20' E 139°42'1312.4
2016-Jan-31 09:33N 35°08' E 139°46'  
Track history (hours):
 
Tides and Currents Weather Stations Pressure Air Temp Water Temp Dewpoint Dewpoint Depression Visibility Wind Speed Wind Dir Waves Ship Positions

21kousinmaru

Last reported at 2016-Feb-08 03:33 UTC. Time now 2016-Feb-09 11:53 UTC.
Position N 35°17' E 139°44'.

Length 68 m; draft 4.5 m.

MMSI: 431501835.

Date/timePositionNaut miles runAvg speedWind from/ knotsBaromVisibWave heightAir tempDewpointWater temp
2016-Feb-08 03:33N 35°17' E 139°44'1110.6
2016-Feb-08 02:33N 35°27' E 139°48'1212.0
2016-Feb-08 01:33N 35°31' E 140°02'0 0.3
2016-Feb-08 00:33N 35°31' E 140°02'0 0.0
2016-Feb-07 23:33N 35°31' E 140°02'0 0.0
2016-Feb-07 22:33N 35°31' E 140°02'0 0.5
2016-Feb-07 21:33N 35°31' E 140°02'6 5.9
2016-Feb-07 20:33N 35°29' E 139°55'0 0.0
2016-Feb-07 19:33N 35°29' E 139°55'0 0.0
2016-Feb-07 18:33N 35°29' E 139°55'0 0.0
2016-Feb-07 17:33N 35°29' E 139°55'1111.1
2016-Feb-07 16:34N 35°22' E 139°45'1212.3
2016-Feb-07 15:33N 35°09' E 139°46'1312.8
2016-Feb-07 14:33N 34°56' E 139°44'1611.2
2016-Feb-07 13:09N 34°56' E 140°03'812.6
2016-Feb-07 12:33N 35°00' E 140°11'59 4.4
2016-Feb-06 23:11N 35°54' E 140°41'  
2016-Feb-03 23:31N 35°53' E 140°41'  
2016-Feb-01 09:27N 35°00' E 140°13'1411.8
2016-Feb-01 08:16N 34°53' E 139°58'1110.8
2016-Feb-01 07:14N 34°56' E 139°45'1212.9
2016-Feb-01 06:16N 35°09' E 139°46'912.6
2016-Feb-01 05:33N 35°18' E 139°44'5 4.7
2016-Feb-01 04:34N 35°21' E 139°41'3 2.5
2016-Feb-01 03:33N 35°23' E 139°40'2 1.6
2016-Feb-01 02:34N 35°25' E 139°39'0 0.0
2016-Feb-01 01:33N 35°25' E 139°39'0 0.0
2016-Feb-01 00:34N 35°25' E 139°39'0 0.0
2016-Jan-31 23:33N 35°25' E 139°39'2 2.0
2016-Jan-31 22:34N 35°23' E 139°40'0 0.5
2016-Jan-31 21:33N 35°23' E 139°40'0 0.0
2016-Jan-31 20:34N 35°23' E 139°40'0 0.0
2016-Jan-31 19:33N 35°23' E 139°40'0 0.0
2016-Jan-31 18:33N 35°23' E 139°40'0 0.0
2016-Jan-31 17:33N 35°23' E 139°40'0 0.0
2016-Jan-31 16:34N 35°23' E 139°40'0 0.0
2016-Jan-31 15:33N 35°23' E 139°40'0 0.0
2016-Jan-31 14:34N 35°23' E 139°40'0 0.0
2016-Jan-31 13:33N 35°23' E 139°40'0 0.0
2016-Jan-31 12:34N 35°23' E 139°40'0 0.0
2016-Jan-31 11:33N 35°23' E 139°40'3 3.0
2016-Jan-31 10:34N 35°20' E 139°42'1312.4
2016-Jan-31 09:33N 35°08' E 139°46'  

Dump ship's entire track history